createdAt,value
2019-03-03T00:00:15.683Z,100246.66
2019-03-03T00:02:46.282Z,100242.81
2019-03-03T00:05:16.774Z,100232.86
2019-03-03T00:07:47.390Z,100246.26
2019-03-03T00:10:17.922Z,100243.06
2019-03-03T00:12:48.479Z,100238.39
2019-03-03T00:15:19.134Z,100243.49
2019-03-03T00:17:49.709Z,100247.78
2019-03-03T00:20:20.292Z,100257.64
2019-03-03T00:22:50.874Z,100250.72
2019-03-03T00:25:21.444Z,100253.94
2019-03-03T00:27:52.011Z,100255.83
2019-03-03T00:30:22.675Z,100251.53
2019-03-03T00:32:53.328Z,100236.40
2019-03-03T00:35:23.830Z,100236.16
2019-03-03T00:38:08.894Z,100230.24
2019-03-03T00:40:54.771Z,100227.48
2019-03-03T00:43:56.410Z,100225.08
2019-03-03T00:46:44.935Z,100210.61
2019-03-03T00:49:43.430Z,100209.55
2019-03-03T00:52:38.803Z,100203.59
2019-03-03T00:55:26.925Z,100199.66
2019-03-03T00:58:16.366Z,100194.39
2019-03-03T01:00:54.401Z,100185.05
2019-03-03T01:03:38.728Z,100170.30
2019-03-03T01:06:28.806Z,100165.69
2019-03-03T01:09:18.288Z,100165.52
2019-03-03T01:11:56.219Z,100166.15
2019-03-03T01:14:58.003Z,100156.30
2019-03-03T01:17:41.521Z,100166.58
2019-03-03T01:20:22.764Z,100165.27
2019-03-03T01:23:15.097Z,100160.12
2019-03-03T01:25:45.681Z,100158.34
2019-03-03T01:28:16.206Z,100139.61
2019-03-03T01:30:46.777Z,100144.38
2019-03-03T01:33:17.271Z,100139.54
2019-03-03T01:35:47.789Z,100133.47
2019-03-03T01:38:18.291Z,100136.73
2019-03-03T01:40:48.864Z,100123.09
2019-03-03T01:43:19.407Z,100122.55
2019-03-03T01:45:50.013Z,100118.80
2019-03-03T01:48:20.545Z,100110.27
2019-03-03T01:50:51.056Z,100106.70
2019-03-03T01:53:21.620Z,100100.79
2019-03-03T01:55:52.202Z,100100.16
2019-03-03T01:58:22.770Z,100088.59
2019-03-03T02:00:53.806Z,100081.11
2019-03-03T02:03:24.776Z,100081.88
2019-03-03T02:05:55.331Z,100080.02
2019-03-03T02:08:25.912Z,100066.97
2019-03-03T02:10:56.557Z,100069.88
2019-03-03T02:13:27.127Z,100055.27
2019-03-03T02:15:57.706Z,100052.90
2019-03-03T02:18:28.240Z,100057.19
2019-03-03T02:20:58.833Z,100049.87
2019-03-03T02:23:29.446Z,100051.66
2019-03-03T02:25:59.967Z,100047.84
2019-03-03T02:28:30.484Z,100033.49
2019-03-03T02:31:01.048Z,100032.17
2019-03-03T02:33:31.563Z,100041.53
2019-03-03T02:36:02.053Z,100039.61
2019-03-03T02:38:32.560Z,100034.58
2019-03-03T02:41:03.114Z,100039.38
2019-03-03T02:43:41.807Z,100026.34
2019-03-03T02:46:12.368Z,100019.95
2019-03-03T02:48:42.906Z,100013.30
2019-03-03T02:51:13.436Z,100020.48
2019-03-03T02:53:43.985Z,100005.39
2019-03-03T02:56:14.460Z,100001.77
2019-03-03T02:58:45.034Z,100000.73
2019-03-03T03:01:20.916Z,99992.69
2019-03-03T03:03:51.493Z,99990.45
2019-03-03T03:06:33.196Z,99986.77
2019-03-03T03:09:29.856Z,99983.59
2019-03-03T03:12:19.242Z,99974.30
2019-03-03T03:15:21.117Z,99975.11
2019-03-03T03:18:19.390Z,99969.44
2019-03-03T03:21:01.101Z,99974.10
2019-03-03T03:23:49.504Z,99962.06
2019-03-03T03:26:27.813Z,99968.31
2019-03-03T03:29:20.383Z,99967.11
2019-03-03T03:32:10.463Z,99964.16
2019-03-03T03:34:46.359Z,99964.36
2019-03-03T03:37:29.966Z,99961.64
2019-03-03T03:40:19.072Z,99955.92
2019-03-03T03:43:17.388Z,99949.66
2019-03-03T03:45:59.347Z,99940.75
2019-03-03T03:48:40.948Z,99957.38
2019-03-03T03:51:26.261Z,99947.14
2019-03-03T03:54:17.241Z,99940.10
2019-03-03T03:57:16.755Z,99937.97
2019-03-03T04:00:06.131Z,99930.20
2019-03-03T04:03:14.008Z,99920.39
2019-03-03T04:05:52.215Z,99914.38
2019-03-03T04:08:30.512Z,99910.17
2019-03-03T04:11:13.428Z,99905.16
2019-03-03T04:14:02.838Z,99910.28
2019-03-03T04:16:48.323Z,99902.77
2019-03-03T04:19:22.825Z,99906.91
2019-03-03T04:22:21.212Z,99896.82
2019-03-03T04:25:00.924Z,99891.16
2019-03-03T04:27:37.859Z,99883.87
2019-03-03T04:30:17.576Z,99888.09
2019-03-03T04:33:01.431Z,99880.20
2019-03-03T04:35:47.309Z,99870.30
2019-03-03T04:38:52.078Z,99875.62
2019-03-03T04:41:50.227Z,99862.77
2019-03-03T04:44:30.060Z,99859.11
2019-03-03T04:47:16.126Z,99862.06
2019-03-03T04:50:05.534Z,99854.15
2019-03-03T04:52:48.725Z,99849.02
2019-03-03T04:55:47.251Z,99844.27
2019-03-03T04:58:51.760Z,99841.16
2019-03-03T05:01:30.702Z,99833.44
2019-03-03T05:04:10.288Z,99828.67
2019-03-03T05:06:46.187Z,99828.36
2019-03-03T05:09:31.528Z,99829.61
2019-03-03T05:12:38.394Z,99830.95
2019-03-03T05:15:30.807Z,99819.89
2019-03-03T05:18:20.241Z,99818.66
2019-03-03T05:20:52.213Z,99823.73
2019-03-03T05:23:22.714Z,99825.98
2019-03-03T05:25:53.272Z,99813.14
2019-03-03T05:28:23.836Z,99811.63
2019-03-03T05:30:54.413Z,99823.01
2019-03-03T05:33:25.906Z,99815.64
2019-03-03T05:35:56.905Z,99808.86
2019-03-03T05:38:27.451Z,99811.44
2019-03-03T05:40:57.999Z,99808.75
2019-03-03T05:43:28.467Z,99802.36
2019-03-03T05:45:58.989Z,99807.83
2019-03-03T05:48:29.481Z,99799.08
2019-03-03T05:50:59.925Z,99801.77
2019-03-03T05:53:30.441Z,99800.98
2019-03-03T05:56:00.967Z,99803.01
2019-03-03T05:58:31.522Z,99795.33
2019-03-03T06:01:01.937Z,99794.09
2019-03-03T06:03:32.375Z,99796.31
2019-03-03T06:06:02.884Z,99788.55
2019-03-03T06:08:33.269Z,99783.76
2019-03-03T06:11:03.830Z,99781.30
2019-03-03T06:13:34.320Z,99785.05
2019-03-03T06:16:04.837Z,99780.73
2019-03-03T06:18:35.342Z,99775.86
2019-03-03T06:21:05.850Z,99777.16
2019-03-03T06:23:36.408Z,99779.27
2019-03-03T06:26:06.932Z,99778.16
2019-03-03T06:28:37.338Z,99786.78
2019-03-03T06:31:07.843Z,99786.39
2019-03-03T06:33:38.348Z,99788.55
2019-03-03T06:36:08.873Z,99786.56
2019-03-03T06:38:39.383Z,99789.53
2019-03-03T06:41:09.955Z,99782.83
2019-03-03T06:43:40.540Z,99787.15
2019-03-03T06:46:11.089Z,99790.98
2019-03-03T06:48:41.612Z,99774.59
2019-03-03T06:51:12.135Z,99779.86
2019-03-03T06:53:42.680Z,99778.08
2019-03-03T06:56:13.112Z,99781.52
2019-03-03T06:58:43.642Z,99780.84
2019-03-03T07:01:14.135Z,99779.33
2019-03-03T07:03:44.664Z,99783.00
2019-03-03T07:06:15.250Z,99783.48
2019-03-03T07:08:45.702Z,99790.40
2019-03-03T07:11:16.256Z,99779.25
2019-03-03T07:13:46.740Z,99784.52
2019-03-03T07:16:17.314Z,99788.16
2019-03-03T07:18:47.893Z,99788.16
2019-03-03T07:21:18.438Z,99789.53
2019-03-03T07:23:48.931Z,99789.41
2019-03-03T07:26:19.501Z,99791.63
2019-03-03T07:28:50.018Z,99795.50
2019-03-03T07:31:20.462Z,99791.83
2019-03-03T07:33:54.552Z,99792.81
2019-03-03T07:36:25.048Z,99794.80
2019-03-03T07:38:55.512Z,99807.04
2019-03-03T07:41:26.008Z,99790.77
2019-03-03T07:43:56.532Z,99789.92
2019-03-03T07:46:27.038Z,99797.88
2019-03-03T07:48:57.537Z,99796.95
2019-03-03T07:51:28.021Z,99791.29
2019-03-03T07:53:58.515Z,99791.34
2019-03-03T07:56:29.125Z,99794.63
2019-03-03T07:58:59.622Z,99796.61
2019-03-03T08:01:30.113Z,99804.52
2019-03-03T08:04:00.616Z,99796.61
2019-03-03T08:06:31.093Z,99776.91
2019-03-03T08:09:01.610Z,99782.98
2019-03-03T08:11:32.166Z,99792.44
2019-03-03T08:14:02.720Z,99777.30
2019-03-03T08:16:33.221Z,99770.91
2019-03-03T08:19:03.747Z,99780.70
2019-03-03T08:21:34.231Z,99784.94
2019-03-03T08:24:04.756Z,99783.09
2019-03-03T08:26:36.552Z,99795.84
2019-03-03T08:29:07.177Z,99792.03
2019-03-03T08:31:37.663Z,99793.54
2019-03-03T08:34:08.200Z,99791.75
2019-03-03T08:36:38.724Z,99798.21
2019-03-03T08:39:09.994Z,99800.32
2019-03-03T08:41:44.621Z,99801.36
2019-03-03T08:44:21.114Z,99788.94
2019-03-03T08:47:07.529Z,99799.67
2019-03-03T08:49:53.020Z,99794.36
2019-03-03T08:52:48.600Z,99800.42
2019-03-03T08:55:43.943Z,99800.95
2019-03-03T08:58:21.533Z,99798.70
2019-03-03T09:01:16.891Z,99807.27
2019-03-03T09:04:18.741Z,99806.60
2019-03-03T09:07:04.915Z,99823.09
2019-03-03T09:09:53.909Z,99822.27
2019-03-03T09:12:40.362Z,99825.89
2019-03-03T09:15:32.817Z,99827.45
2019-03-03T09:18:12.958Z,99820.30
2019-03-03T09:20:55.797Z,99818.37
2019-03-03T09:23:42.514Z,99809.28
2019-03-03T09:26:44.005Z,99815.17
2019-03-03T09:29:35.044Z,99825.63
2019-03-03T09:32:23.361Z,99824.58
2019-03-03T09:35:15.804Z,99829.05
2019-03-03T09:37:59.453Z,99833.30
2019-03-03T09:40:39.402Z,99828.13
2019-03-03T09:43:24.090Z,99823.19
2019-03-03T09:46:15.980Z,99818.44
2019-03-03T09:48:54.541Z,99823.61
2019-03-03T09:51:43.024Z,99816.27
2019-03-03T09:54:35.376Z,99804.26
2019-03-03T09:57:40.421Z,99797.43
2019-03-03T10:00:35.006Z,99816.69
2019-03-03T10:03:28.219Z,99829.83
2019-03-03T10:06:36.089Z,99839.43
2019-03-03T10:09:27.121Z,99837.31
2019-03-03T10:12:02.571Z,99836.70
2019-03-03T10:14:38.767Z,99855.86
2019-03-03T10:17:28.686Z,99847.97
2019-03-03T10:20:27.013Z,99836.42
2019-03-03T10:23:22.551Z,99842.69
2019-03-03T10:26:03.334Z,99849.33
2019-03-03T10:28:55.901Z,99848.37
2019-03-03T10:31:39.648Z,99836.59
2019-03-03T10:34:35.461Z,99832.59
2019-03-03T10:37:28.015Z,99839.80
2019-03-03T10:40:20.458Z,99850.73
2019-03-03T10:43:18.743Z,99849.80
2019-03-03T10:45:58.607Z,99849.37
2019-03-03T10:48:39.974Z,99852.47
2019-03-03T10:51:32.787Z,99844.38
2019-03-03T10:54:34.532Z,99864.81
2019-03-03T10:57:39.417Z,99860.84
2019-03-03T11:00:28.489Z,99861.08
2019-03-03T11:03:23.744Z,99860.09
2019-03-03T11:06:04.971Z,99847.17
2019-03-03T11:09:12.587Z,99855.06
2019-03-03T11:12:02.021Z,99854.31
2019-03-03T11:14:45.495Z,99854.25
2019-03-03T11:17:41.039Z,99857.55
2019-03-03T11:20:31.915Z,99853.88
2019-03-03T11:23:14.110Z,99855.13
2019-03-03T11:26:02.785Z,99861.16
2019-03-03T11:28:46.257Z,99862.94
2019-03-03T11:31:54.188Z,99852.92
2019-03-03T11:34:48.588Z,99854.43
2019-03-03T11:37:34.170Z,99846.86
2019-03-03T11:40:30.229Z,99841.30
2019-03-03T11:43:34.801Z,99842.72
2019-03-03T11:46:11.301Z,99836.09
2019-03-03T11:49:16.076Z,99834.58
2019-03-03T11:52:24.032Z,99842.50
2019-03-03T11:55:22.610Z,99838.83
2019-03-03T11:58:11.978Z,99836.23
2019-03-03T12:01:07.212Z,99839.38
2019-03-03T12:04:15.032Z,99833.98
2019-03-03T12:07:08.770Z,99835.99
2019-03-03T12:10:00.819Z,99825.63
2019-03-03T12:12:50.188Z,99831.14
2019-03-03T12:15:30.718Z,99828.75
2019-03-03T12:18:11.483Z,99826.20
2019-03-03T12:21:01.893Z,99823.80
2019-03-03T12:23:52.000Z,99819.56
2019-03-03T12:26:34.775Z,99820.59
2019-03-03T12:29:22.628Z,99816.72
2019-03-03T12:32:21.649Z,99814.45
2019-03-03T12:35:00.566Z,99810.54
2019-03-03T12:37:53.034Z,99807.20
2019-03-03T12:40:42.390Z,99804.45
2019-03-03T12:43:40.943Z,99799.39
2019-03-03T12:46:25.947Z,99802.08
2019-03-03T12:49:03.600Z,99794.85
2019-03-03T12:52:05.354Z,99789.91
2019-03-03T12:55:04.371Z,99785.98
2019-03-03T12:57:52.703Z,99786.11
2019-03-03T13:00:42.108Z,99784.06
2019-03-03T13:03:38.029Z,99781.72
2019-03-03T13:06:30.525Z,99780.11
2019-03-03T13:09:29.165Z,99774.40
2019-03-03T13:12:13.071Z,99767.36
2019-03-03T13:14:49.053Z,99758.02
2019-03-03T13:17:35.242Z,99758.02
2019-03-03T13:20:23.108Z,99752.45
2019-03-03T13:23:11.539Z,99756.56
2019-03-03T13:25:51.906Z,99756.56
2019-03-03T13:28:41.849Z,99755.17
2019-03-03T13:31:26.047Z,99752.39
2019-03-03T13:34:15.477Z,99751.00
2019-03-03T13:37:01.408Z,99742.82
2019-03-03T13:39:40.900Z,99747.80
2019-03-03T13:42:24.719Z,99746.23
2019-03-03T13:44:55.329Z,99741.95
2019-03-03T13:47:25.828Z,99742.09
2019-03-03T13:49:56.392Z,99731.54
2019-03-03T13:52:26.893Z,99735.14
2019-03-03T13:54:57.340Z,99727.37
2019-03-03T13:57:27.756Z,99727.55
2019-03-03T13:59:58.218Z,99724.94
2019-03-03T14:02:28.706Z,99716.33
2019-03-03T14:04:59.210Z,99719.60
2019-03-03T14:07:29.793Z,99712.34
2019-03-03T14:10:01.147Z,99716.60
2019-03-03T14:12:31.738Z,99708.98
2019-03-03T14:15:02.238Z,99710.66
2019-03-03T14:17:32.723Z,99709.70
2019-03-03T14:20:03.213Z,99704.70
2019-03-03T14:22:33.688Z,99701.40
2019-03-03T14:25:04.299Z,99703.23
2019-03-03T14:27:34.778Z,99697.77
2019-03-03T14:30:05.999Z,99693.60
2019-03-03T14:32:36.466Z,99693.09
2019-03-03T14:35:08.204Z,99695.37
2019-03-03T14:37:38.748Z,99690.42
2019-03-03T14:40:11.103Z,99694.34
2019-03-03T14:42:41.621Z,99689.88
2019-03-03T14:45:14.566Z,99684.12
2019-03-03T14:47:45.042Z,99672.95
2019-03-03T14:50:17.077Z,99680.50
2019-03-03T14:52:49.149Z,99677.56
2019-03-03T14:55:20.441Z,99673.94
2019-03-03T14:57:51.028Z,99670.94
2019-03-03T15:00:28.777Z,99667.57
2019-03-03T15:03:01.485Z,99655.95
2019-03-03T15:05:32.540Z,99651.45
2019-03-03T15:08:03.170Z,99644.31
2019-03-03T15:10:33.833Z,99644.25
2019-03-03T15:13:04.487Z,99645.97
2019-03-03T15:15:35.749Z,99638.17
2019-03-03T15:18:06.403Z,99641.06
2019-03-03T15:20:37.063Z,99632.83
2019-03-03T15:23:07.547Z,99628.14
2019-03-03T15:25:38.372Z,99618.44
2019-03-03T15:28:09.180Z,99628.14
2019-03-03T15:30:39.686Z,99627.95
2019-03-03T15:33:14.413Z,99622.64
2019-03-03T15:35:44.926Z,99616.67
2019-03-03T15:38:15.538Z,99609.77
2019-03-03T15:40:46.089Z,99611.33
2019-03-03T15:43:16.848Z,99609.48
2019-03-03T15:45:47.507Z,99611.61
2019-03-03T15:48:18.170Z,99604.33
2019-03-03T15:50:48.741Z,99597.73
2019-03-03T15:53:19.330Z,99605.59
2019-03-03T15:55:50.183Z,99597.33
2019-03-03T15:58:20.799Z,99593.08
2019-03-03T16:00:51.307Z,99595.34
2019-03-03T16:03:21.938Z,99577.58
2019-03-03T16:05:52.517Z,99565.62
2019-03-03T16:08:23.091Z,99566.75
2019-03-03T16:10:53.636Z,99567.73
2019-03-03T16:13:24.249Z,99557.86
2019-03-03T16:15:54.776Z,99555.74
2019-03-03T16:18:25.457Z,99552.48
2019-03-03T16:20:56.017Z,99546.75
2019-03-03T16:23:26.622Z,99554.35
2019-03-03T16:29:00.382Z,99542.53
2019-03-03T16:31:33.392Z,99534.81
2019-03-03T16:34:06.917Z,99535.95
2019-03-03T16:37:01.362Z,99540.59
2019-03-03T16:39:32.143Z,99538.98
2019-03-03T16:42:02.875Z,99531.42
2019-03-03T16:44:33.768Z,99526.98
2019-03-03T16:47:04.259Z,99517.08
2019-03-03T16:49:34.867Z,99515.42
2019-03-03T16:52:05.391Z,99514.11
2019-03-03T16:54:38.298Z,99517.73
2019-03-03T16:57:08.809Z,99505.87
2019-03-03T16:59:39.835Z,99500.80
2019-03-03T17:02:10.373Z,99490.41
2019-03-03T17:04:40.894Z,99482.69
2019-03-03T17:07:11.371Z,99475.59
2019-03-03T17:09:41.919Z,99473.80
2019-03-03T17:12:12.472Z,99467.06
2019-03-03T17:14:42.949Z,99462.33
2019-03-03T17:17:13.474Z,99458.59
2019-03-03T17:19:43.928Z,99461.30
2019-03-03T17:22:14.378Z,99454.08
2019-03-03T17:24:44.880Z,99455.42
2019-03-03T17:27:15.372Z,99455.83
2019-03-03T17:29:45.855Z,99449.58
2019-03-03T17:32:16.393Z,99439.61
2019-03-03T17:34:46.880Z,99435.03
2019-03-03T17:37:17.265Z,99434.08
2019-03-03T17:39:47.792Z,99436.06
2019-03-03T17:42:18.271Z,99425.37
2019-03-03T17:44:48.765Z,99413.66
2019-03-03T17:47:19.294Z,99419.47
2019-03-03T17:49:49.761Z,99412.20
2019-03-03T17:52:20.229Z,99415.53
2019-03-03T17:54:50.829Z,99405.97
2019-03-03T17:57:21.334Z,99410.57
2019-03-03T17:59:51.814Z,99404.13
2019-03-03T18:02:22.425Z,99411.91
2019-03-03T18:04:52.892Z,99398.02
2019-03-03T18:07:23.354Z,99414.03
2019-03-03T18:09:54.054Z,99406.94
2019-03-03T18:12:24.561Z,99393.26
2019-03-03T18:14:55.038Z,99392.27
2019-03-03T18:17:25.549Z,99397.55
2019-03-03T18:19:56.040Z,99387.47
2019-03-03T18:22:26.502Z,99386.31
2019-03-03T18:24:57.006Z,99385.66
2019-03-03T18:27:27.500Z,99384.50
2019-03-03T18:29:57.960Z,99375.91
2019-03-03T18:32:28.458Z,99367.34
2019-03-03T18:34:58.942Z,99365.70
2019-03-03T18:37:29.460Z,99368.98
2019-03-03T18:40:00.337Z,99369.50
2019-03-03T18:42:30.831Z,99364.70
2019-03-03T18:45:01.355Z,99367.98
2019-03-03T18:47:31.999Z,99351.34
2019-03-03T18:50:02.512Z,99354.78
2019-03-03T18:52:32.979Z,99340.27
2019-03-03T18:55:03.469Z,99344.23
2019-03-03T18:57:33.992Z,99336.30
2019-03-03T19:00:06.142Z,99339.14
2019-03-03T19:02:36.695Z,99322.63
2019-03-03T19:05:07.548Z,99337.98
2019-03-03T19:07:38.033Z,99329.70
2019-03-03T19:10:11.779Z,99332.53
2019-03-03T19:12:42.295Z,99330.22
2019-03-03T19:15:15.790Z,99338.30
2019-03-03T19:17:46.428Z,99331.86
2019-03-03T19:20:18.499Z,99340.10
2019-03-03T19:22:49.067Z,99332.53
2019-03-03T19:25:19.791Z,99322.46
2019-03-03T19:27:51.092Z,99327.58
2019-03-03T19:30:25.987Z,99320.47
2019-03-03T19:33:11.112Z,99326.58
2019-03-03T19:35:41.604Z,99319.66
2019-03-03T19:38:12.135Z,99323.62
2019-03-03T19:40:42.796Z,99310.58
2019-03-03T19:43:13.403Z,99311.58
2019-03-03T19:45:43.902Z,99310.09
2019-03-03T19:48:14.859Z,99312.25
2019-03-03T19:50:45.352Z,99311.26
2019-03-03T19:53:15.971Z,99310.94
2019-03-03T19:55:46.478Z,99307.45
2019-03-03T19:58:17.108Z,99308.62
2019-03-03T20:00:48.004Z,99311.26
2019-03-03T20:03:18.477Z,99296.06
2019-03-03T20:05:48.977Z,99305.46
2019-03-03T20:08:19.437Z,99297.70
2019-03-03T20:10:50.099Z,99301.34
2019-03-03T20:13:20.666Z,99301.34
2019-03-03T20:15:51.553Z,99300.70
2019-03-03T20:18:22.070Z,99288.50
2019-03-03T20:20:52.575Z,99304.66
2019-03-03T20:26:02.241Z,99302.02
2019-03-03T20:28:32.796Z,99299.22
2019-03-03T20:31:04.096Z,99294.42
2019-03-03T20:33:34.656Z,99292.78
2019-03-03T20:36:05.342Z,99289.81
2019-03-03T20:38:35.848Z,99292.78
2019-03-03T20:41:06.371Z,99291.27
2019-03-03T20:43:36.879Z,99284.70
2019-03-03T20:46:07.398Z,99278.74
2019-03-03T20:48:37.957Z,99279.39
2019-03-03T20:51:08.590Z,99282.51
2019-03-03T20:53:39.067Z,99272.30
2019-03-03T20:56:09.557Z,99282.19
2019-03-03T20:58:40.102Z,99262.11
2019-03-03T21:01:10.687Z,99268.70
2019-03-03T21:03:41.242Z,99265.39
2019-03-03T21:06:11.882Z,99261.11
2019-03-03T21:08:43.646Z,99247.88
2019-03-03T21:11:14.256Z,99255.00
2019-03-03T21:13:44.847Z,99251.19
2019-03-03T21:16:15.548Z,99239.64
2019-03-03T21:18:46.091Z,99235.52
2019-03-03T21:21:16.589Z,99233.53
2019-03-03T21:23:47.165Z,99224.97
2019-03-03T21:26:17.654Z,99226.13
2019-03-03T21:28:48.152Z,99222.81
2019-03-03T21:31:18.664Z,99218.89
2019-03-03T21:33:49.200Z,99215.90
2019-03-03T21:36:19.711Z,99207.66
2019-03-03T21:38:50.299Z,99201.73
2019-03-03T21:41:20.983Z,99200.58
2019-03-03T21:43:51.523Z,99195.47
2019-03-03T21:46:22.007Z,99190.19
2019-03-03T21:48:52.577Z,99182.60
2019-03-03T21:51:23.457Z,99175.04
2019-03-03T21:53:53.955Z,99171.89
2019-03-03T21:56:24.491Z,99177.33
2019-03-03T21:58:54.993Z,99178.48
2019-03-03T22:01:25.491Z,99171.09
2019-03-03T22:03:56.033Z,99168.77
2019-03-03T22:06:26.511Z,99166.30
2019-03-03T22:08:57.041Z,99160.18
2019-03-03T22:11:27.556Z,99158.86
2019-03-03T22:13:58.065Z,99158.89
2019-03-03T22:16:28.625Z,99153.42
2019-03-03T22:18:59.123Z,99151.46
2019-03-03T22:21:29.647Z,99139.11
2019-03-03T22:24:00.096Z,99139.44
2019-03-03T22:26:30.655Z,99134.48
2019-03-03T22:29:01.123Z,99135.16
2019-03-03T22:31:31.616Z,99138.60
2019-03-03T22:34:02.158Z,99128.25
2019-03-03T22:36:32.602Z,99136.31
2019-03-03T22:39:03.010Z,99129.38
2019-03-03T22:41:33.525Z,99126.09
2019-03-03T22:44:03.987Z,99128.20
2019-03-03T22:46:34.534Z,99119.65
2019-03-03T22:49:05.189Z,99116.37
2019-03-03T22:51:35.709Z,99106.95
2019-03-03T22:54:06.221Z,99110.27
2019-03-03T22:56:36.708Z,99100.20
2019-03-03T22:59:07.199Z,99105.48
2019-03-03T23:01:42.775Z,99093.77
2019-03-03T23:05:12.032Z,99086.37
2019-03-03T23:08:26.147Z,99086.37
2019-03-03T23:11:28.890Z,99076.98
2019-03-03T23:14:39.285Z,99075.50
2019-03-03T23:18:02.429Z,99074.19
2019-03-03T23:20:47.443Z,99073.83
2019-03-03T23:23:49.594Z,99059.32
2019-03-03T23:26:20.080Z,99058.35
2019-03-03T23:28:50.535Z,99051.41
2019-03-03T23:31:21.047Z,99046.82
2019-03-03T23:33:51.597Z,99050.70
2019-03-03T23:36:22.112Z,99049.43
2019-03-03T23:38:52.844Z,99054.36
2019-03-03T23:41:23.259Z,99053.19
2019-03-03T23:43:53.866Z,99040.45
2019-03-03T23:46:24.332Z,99040.45
2019-03-03T23:48:54.903Z,99032.38
2019-03-03T23:51:25.350Z,99023.66
2019-03-03T23:53:55.803Z,99024.67
2019-03-03T23:56:26.402Z,99012.66
2019-03-03T23:58:56.893Z,99009.16
